sensor_id;sensor_type;location;lat;lon;timestamp;P1;durP1;ratioP1;P2;durP2;ratioP2
11960;SDS011;6040;49.358;11.140;2022-08-16T00:02:05;7.83;;;4.77;;
11960;SDS011;6040;49.358;11.140;2022-08-16T00:04:32;5.97;;;4.47;;
11960;SDS011;6040;49.358;11.140;2022-08-16T00:06:59;5.40;;;4.67;;
11960;SDS011;6040;49.358;11.140;2022-08-16T00:09:26;7.03;;;4.93;;
11960;SDS011;6040;49.358;11.140;2022-08-16T00:11:55;4.67;;;4.20;;
11960;SDS011;6040;49.358;11.140;2022-08-16T00:14:23;7.27;;;4.60;;
11960;SDS011;6040;49.358;11.140;2022-08-16T00:16:52;4.93;;;4.53;;
11960;SDS011;6040;49.358;11.140;2022-08-16T00:19:20;5.20;;;4.67;;
11960;SDS011;6040;49.358;11.140;2022-08-16T00:21:49;8.50;;;4.40;;
11960;SDS011;6040;49.358;11.140;2022-08-16T00:24:16;5.00;;;4.53;;
11960;SDS011;6040;49.358;11.140;2022-08-16T00:26:43;5.03;;;4.53;;
11960;SDS011;6040;49.358;11.140;2022-08-16T00:29:13;5.13;;;4.60;;
11960;SDS011;6040;49.358;11.140;2022-08-16T00:31:41;4.87;;;4.40;;
11960;SDS011;6040;49.358;11.140;2022-08-16T00:34:09;5.80;;;4.43;;
11960;SDS011;6040;49.358;11.140;2022-08-16T00:36:36;5.70;;;4.57;;
11960;SDS011;6040;49.358;11.140;2022-08-16T00:39:03;6.17;;;4.53;;
11960;SDS011;6040;49.358;11.140;2022-08-16T00:41:30;6.53;;;4.60;;
11960;SDS011;6040;49.358;11.140;2022-08-16T00:43:58;7.23;;;4.97;;
11960;SDS011;6040;49.358;11.140;2022-08-16T00:46:30;5.37;;;4.87;;
11960;SDS011;6040;49.358;11.140;2022-08-16T00:49:02;4.67;;;4.20;;
11960;SDS011;6040;49.358;11.140;2022-08-16T00:51:30;6.13;;;4.33;;
11960;SDS011;6040;49.358;11.140;2022-08-16T00:53:57;7.00;;;4.20;;
11960;SDS011;6040;49.358;11.140;2022-08-16T00:56:25;4.50;;;4.10;;
11960;SDS011;6040;49.358;11.140;2022-08-16T00:58:55;4.70;;;4.13;;
11960;SDS011;6040;49.358;11.140;2022-08-16T01:01:22;6.10;;;4.37;;
11960;SDS011;6040;49.358;11.140;2022-08-16T01:03:50;5.10;;;4.47;;
11960;SDS011;6040;49.358;11.140;2022-08-16T01:06:19;4.70;;;4.20;;
11960;SDS011;6040;49.358;11.140;2022-08-16T01:08:48;5.23;;;4.50;;
11960;SDS011;6040;49.358;11.140;2022-08-16T01:11:17;6.13;;;4.70;;
11960;SDS011;6040;49.358;11.140;2022-08-16T01:13:44;5.30;;;4.37;;
11960;SDS011;6040;49.358;11.140;2022-08-16T01:16:12;4.87;;;4.43;;
11960;SDS011;6040;49.358;11.140;2022-08-16T01:18:43;4.73;;;3.90;;
11960;SDS011;6040;49.358;11.140;2022-08-16T01:21:20;4.47;;;4.07;;
11960;SDS011;6040;49.358;11.140;2022-08-16T01:23:59;6.97;;;4.13;;
11960;SDS011;6040;49.358;11.140;2022-08-16T01:26:38;5.97;;;4.33;;
11960;SDS011;6040;49.358;11.140;2022-08-16T01:29:08;6.40;;;4.50;;
11960;SDS011;6040;49.358;11.140;2022-08-16T01:31:39;6.40;;;4.17;;
11960;SDS011;6040;49.358;11.140;2022-08-16T01:34:05;4.90;;;4.40;;
11960;SDS011;6040;49.358;11.140;2022-08-16T01:36:33;4.80;;;4.23;;
11960;SDS011;6040;49.358;11.140;2022-08-16T01:39:08;5.00;;;4.17;;
11960;SDS011;6040;49.358;11.140;2022-08-16T01:41:38;5.00;;;4.50;;
11960;SDS011;6040;49.358;11.140;2022-08-16T01:44:05;7.33;;;4.47;;
11960;SDS011;6040;49.358;11.140;2022-08-16T01:46:34;5.70;;;4.77;;
11960;SDS011;6040;49.358;11.140;2022-08-16T01:49:03;4.73;;;4.33;;
11960;SDS011;6040;49.358;11.140;2022-08-16T01:51:32;4.90;;;4.40;;
11960;SDS011;6040;49.358;11.140;2022-08-16T01:54:00;5.13;;;4.63;;
11960;SDS011;6040;49.358;11.140;2022-08-16T01:56:29;8.27;;;4.37;;
11960;SDS011;6040;49.358;11.140;2022-08-16T01:58:57;5.43;;;4.63;;
11960;SDS011;6040;49.358;11.140;2022-08-16T02:01:25;4.93;;;4.43;;
11960;SDS011;6040;49.358;11.140;2022-08-16T02:03:52;7.20;;;4.80;;
11960;SDS011;6040;49.358;11.140;2022-08-16T02:06:19;5.80;;;4.73;;
11960;SDS011;6040;49.358;11.140;2022-08-16T02:08:45;4.67;;;4.23;;
11960;SDS011;6040;49.358;11.140;2022-08-16T02:11:13;5.03;;;4.53;;
11960;SDS011;6040;49.358;11.140;2022-08-16T02:13:41;5.57;;;4.50;;
11960;SDS011;6040;49.358;11.140;2022-08-16T02:16:10;5.20;;;4.50;;
11960;SDS011;6040;49.358;11.140;2022-08-16T02:18:38;4.87;;;4.37;;
11960;SDS011;6040;49.358;11.140;2022-08-16T02:21:06;7.87;;;4.47;;
11960;SDS011;6040;49.358;11.140;2022-08-16T02:23:35;5.50;;;4.67;;
11960;SDS011;6040;49.358;11.140;2022-08-16T02:26:02;6.80;;;5.00;;
11960;SDS011;6040;49.358;11.140;2022-08-16T02:28:31;5.83;;;4.83;;
11960;SDS011;6040;49.358;11.140;2022-08-16T02:31:02;9.10;;;5.13;;
11960;SDS011;6040;49.358;11.140;2022-08-16T02:33:31;8.73;;;5.20;;
11960;SDS011;6040;49.358;11.140;2022-08-16T02:35:58;6.10;;;5.50;;
11960;SDS011;6040;49.358;11.140;2022-08-16T02:38:25;5.57;;;5.07;;
11960;SDS011;6040;49.358;11.140;2022-08-16T02:40:52;5.03;;;4.57;;
11960;SDS011;6040;49.358;11.140;2022-08-16T02:43:19;6.23;;;5.03;;
11960;SDS011;6040;49.358;11.140;2022-08-16T02:45:46;5.57;;;5.07;;
11960;SDS011;6040;49.358;11.140;2022-08-16T02:48:14;6.40;;;4.50;;
11960;SDS011;6040;49.358;11.140;2022-08-16T02:50:41;7.37;;;4.73;;
11960;SDS011;6040;49.358;11.140;2022-08-16T02:53:07;6.40;;;4.80;;
11960;SDS011;6040;49.358;11.140;2022-08-16T02:55:35;7.13;;;5.00;;
11960;SDS011;6040;49.358;11.140;2022-08-16T02:58:02;5.60;;;5.10;;
11960;SDS011;6040;49.358;11.140;2022-08-16T03:00:30;4.80;;;4.40;;
11960;SDS011;6040;49.358;11.140;2022-08-16T03:02:57;5.30;;;4.80;;
11960;SDS011;6040;49.358;11.140;2022-08-16T03:05:25;5.00;;;4.50;;
11960;SDS011;6040;49.358;11.140;2022-08-16T03:07:52;6.07;;;4.80;;
11960;SDS011;6040;49.358;11.140;2022-08-16T03:10:20;4.80;;;4.40;;
11960;SDS011;6040;49.358;11.140;2022-08-16T03:12:47;9.63;;;5.00;;
11960;SDS011;6040;49.358;11.140;2022-08-16T03:15:15;7.07;;;4.73;;
11960;SDS011;6040;49.358;11.140;2022-08-16T03:17:43;6.10;;;4.90;;
11960;SDS011;6040;49.358;11.140;2022-08-16T03:20:12;5.33;;;4.93;;
11960;SDS011;6040;49.358;11.140;2022-08-16T03:22:42;8.30;;;4.90;;
11960;SDS011;6040;49.358;11.140;2022-08-16T03:25:11;5.80;;;5.20;;
11960;SDS011;6040;49.358;11.140;2022-08-16T03:27:40;5.57;;;5.07;;
11960;SDS011;6040;49.358;11.140;2022-08-16T03:30:09;4.90;;;4.50;;
11960;SDS011;6040;49.358;11.140;2022-08-16T03:32:38;6.03;;;5.20;;
11960;SDS011;6040;49.358;11.140;2022-08-16T03:35:05;5.43;;;4.90;;
11960;SDS011;6040;49.358;11.140;2022-08-16T03:37:32;5.07;;;4.57;;
11960;SDS011;6040;49.358;11.140;2022-08-16T03:40:01;5.17;;;4.77;;
11960;SDS011;6040;49.358;11.140;2022-08-16T03:42:29;5.07;;;4.67;;
11960;SDS011;6040;49.358;11.140;2022-08-16T03:44:56;6.07;;;4.73;;
11960;SDS011;6040;49.358;11.140;2022-08-16T03:47:23;7.17;;;5.33;;
11960;SDS011;6040;49.358;11.140;2022-08-16T03:49:51;5.53;;;5.03;;
11960;SDS011;6040;49.358;11.140;2022-08-16T03:52:19;5.23;;;4.73;;
11960;SDS011;6040;49.358;11.140;2022-08-16T03:54:46;6.37;;;5.40;;
11960;SDS011;6040;49.358;11.140;2022-08-16T03:57:15;5.60;;;4.90;;
11960;SDS011;6040;49.358;11.140;2022-08-16T03:59:42;6.70;;;5.67;;
11960;SDS011;6040;49.358;11.140;2022-08-16T04:02:09;5.60;;;5.00;;
11960;SDS011;6040;49.358;11.140;2022-08-16T04:04:36;5.60;;;4.90;;
11960;SDS011;6040;49.358;11.140;2022-08-16T04:07:05;6.30;;;5.20;;
11960;SDS011;6040;49.358;11.140;2022-08-16T04:09:32;6.20;;;5.00;;
11960;SDS011;6040;49.358;11.140;2022-08-16T04:11:59;6.53;;;5.80;;
11960;SDS011;6040;49.358;11.140;2022-08-16T04:14:27;5.80;;;5.23;;
11960;SDS011;6040;49.358;11.140;2022-08-16T04:16:54;6.47;;;5.40;;
11960;SDS011;6040;49.358;11.140;2022-08-16T04:19:21;6.00;;;5.40;;
11960;SDS011;6040;49.358;11.140;2022-08-16T04:21:49;5.70;;;4.90;;
11960;SDS011;6040;49.358;11.140;2022-08-16T04:24:15;5.80;;;5.30;;
11960;SDS011;6040;49.358;11.140;2022-08-16T04:26:42;5.93;;;5.33;;
11960;SDS011;6040;49.358;11.140;2022-08-16T04:29:09;5.77;;;5.27;;
11960;SDS011;6040;49.358;11.140;2022-08-16T04:31:38;7.40;;;5.53;;
11960;SDS011;6040;49.358;11.140;2022-08-16T04:34:05;6.97;;;5.83;;
11960;SDS011;6040;49.358;11.140;2022-08-16T04:36:32;6.10;;;5.30;;
11960;SDS011;6040;49.358;11.140;2022-08-16T04:38:59;6.83;;;5.83;;
11960;SDS011;6040;49.358;11.140;2022-08-16T04:41:26;5.93;;;5.30;;
11960;SDS011;6040;49.358;11.140;2022-08-16T04:43:54;5.90;;;5.30;;
11960;SDS011;6040;49.358;11.140;2022-08-16T04:46:22;7.07;;;5.57;;
11960;SDS011;6040;49.358;11.140;2022-08-16T04:48:50;6.60;;;5.87;;
11960;SDS011;6040;49.358;11.140;2022-08-16T04:51:17;10.40;;;6.33;;
11960;SDS011;6040;49.358;11.140;2022-08-16T04:53:44;6.70;;;6.10;;
11960;SDS011;6040;49.358;11.140;2022-08-16T04:56:11;7.00;;;5.63;;
11960;SDS011;6040;49.358;11.140;2022-08-16T04:58:38;6.87;;;6.07;;
11960;SDS011;6040;49.358;11.140;2022-08-16T05:01:05;9.03;;;5.90;;
11960;SDS011;6040;49.358;11.140;2022-08-16T05:03:32;7.17;;;5.73;;
11960;SDS011;6040;49.358;11.140;2022-08-16T05:06:00;6.77;;;6.10;;
11960;SDS011;6040;49.358;11.140;2022-08-16T05:08:27;7.67;;;5.67;;
11960;SDS011;6040;49.358;11.140;2022-08-16T05:10:54;7.43;;;5.57;;
11960;SDS011;6040;49.358;11.140;2022-08-16T05:13:22;6.07;;;5.47;;
11960;SDS011;6040;49.358;11.140;2022-08-16T05:15:48;6.07;;;5.57;;
11960;SDS011;6040;49.358;11.140;2022-08-16T05:18:15;5.50;;;5.00;;
11960;SDS011;6040;49.358;11.140;2022-08-16T05:20:42;6.70;;;5.23;;
11960;SDS011;6040;49.358;11.140;2022-08-16T05:23:10;7.67;;;5.70;;
11960;SDS011;6040;49.358;11.140;2022-08-16T05:25:37;7.10;;;5.37;;
11960;SDS011;6040;49.358;11.140;2022-08-16T05:28:05;6.47;;;5.30;;
11960;SDS011;6040;49.358;11.140;2022-08-16T05:30:34;7.57;;;5.50;;
11960;SDS011;6040;49.358;11.140;2022-08-16T05:33:02;5.20;;;4.70;;
11960;SDS011;6040;49.358;11.140;2022-08-16T05:35:29;5.80;;;4.97;;
11960;SDS011;6040;49.358;11.140;2022-08-16T05:37:56;4.90;;;4.47;;
11960;SDS011;6040;49.358;11.140;2022-08-16T05:40:24;7.20;;;4.63;;
11960;SDS011;6040;49.358;11.140;2022-08-16T05:42:51;7.33;;;4.30;;
11960;SDS011;6040;49.358;11.140;2022-08-16T05:45:18;5.73;;;4.30;;
11960;SDS011;6040;49.358;11.140;2022-08-16T05:47:45;5.90;;;4.20;;
11960;SDS011;6040;49.358;11.140;2022-08-16T05:50:12;6.50;;;4.57;;
11960;SDS011;6040;49.358;11.140;2022-08-16T05:52:39;5.57;;;4.47;;
11960;SDS011;6040;49.358;11.140;2022-08-16T05:55:06;6.97;;;4.20;;
11960;SDS011;6040;49.358;11.140;2022-08-16T05:57:35;4.57;;;3.93;;
11960;SDS011;6040;49.358;11.140;2022-08-16T06:00:03;4.73;;;4.33;;
11960;SDS011;6040;49.358;11.140;2022-08-16T06:02:32;4.70;;;4.20;;
11960;SDS011;6040;49.358;11.140;2022-08-16T06:04:59;6.57;;;4.20;;
11960;SDS011;6040;49.358;11.140;2022-08-16T06:07:26;4.80;;;4.30;;
11960;SDS011;6040;49.358;11.140;2022-08-16T06:09:53;4.80;;;4.40;;
11960;SDS011;6040;49.358;11.140;2022-08-16T06:12:22;6.57;;;4.50;;
11960;SDS011;6040;49.358;11.140;2022-08-16T06:14:50;5.17;;;4.40;;
11960;SDS011;6040;49.358;11.140;2022-08-16T06:17:17;6.70;;;4.50;;
11960;SDS011;6040;49.358;11.140;2022-08-16T06:19:44;7.57;;;4.77;;
11960;SDS011;6040;49.358;11.140;2022-08-16T06:22:11;4.53;;;4.13;;
11960;SDS011;6040;49.358;11.140;2022-08-16T06:24:38;7.57;;;4.50;;
11960;SDS011;6040;49.358;11.140;2022-08-16T06:27:05;7.70;;;4.70;;
11960;SDS011;6040;49.358;11.140;2022-08-16T06:29:31;5.20;;;4.70;;
11960;SDS011;6040;49.358;11.140;2022-08-16T06:32:00;4.20;;;3.80;;
11960;SDS011;6040;49.358;11.140;2022-08-16T06:34:27;5.00;;;4.50;;
11960;SDS011;6040;49.358;11.140;2022-08-16T06:36:54;9.03;;;4.53;;
11960;SDS011;6040;49.358;11.140;2022-08-16T06:39:21;5.03;;;4.53;;
11960;SDS011;6040;49.358;11.140;2022-08-16T06:41:48;6.20;;;4.63;;
11960;SDS011;6040;49.358;11.140;2022-08-16T06:44:15;5.70;;;3.97;;
11960;SDS011;6040;49.358;11.140;2022-08-16T06:46:42;4.60;;;4.20;;
11960;SDS011;6040;49.358;11.140;2022-08-16T06:49:10;5.10;;;4.20;;
11960;SDS011;6040;49.358;11.140;2022-08-16T06:51:40;5.33;;;3.97;;
11960;SDS011;6040;49.358;11.140;2022-08-16T06:54:08;4.77;;;4.10;;
11960;SDS011;6040;49.358;11.140;2022-08-16T06:56:36;4.60;;;4.17;;
11960;SDS011;6040;49.358;11.140;2022-08-16T06:59:03;5.53;;;4.20;;
11960;SDS011;6040;49.358;11.140;2022-08-16T07:01:30;5.90;;;4.40;;
11960;SDS011;6040;49.358;11.140;2022-08-16T07:03:57;4.50;;;4.10;;
11960;SDS011;6040;49.358;11.140;2022-08-16T07:06:25;4.53;;;4.17;;
11960;SDS011;6040;49.358;11.140;2022-08-16T07:08:52;4.30;;;3.80;;
11960;SDS011;6040;49.358;11.140;2022-08-16T07:11:20;4.50;;;4.10;;
11960;SDS011;6040;49.358;11.140;2022-08-16T07:13:46;4.60;;;4.10;;
11960;SDS011;6040;49.358;11.140;2022-08-16T07:16:15;4.50;;;3.90;;
11960;SDS011;6040;49.358;11.140;2022-08-16T07:18:42;5.20;;;4.10;;
11960;SDS011;6040;49.358;11.140;2022-08-16T07:21:10;4.30;;;3.57;;
11960;SDS011;6040;49.358;11.140;2022-08-16T07:23:39;4.87;;;4.00;;
11960;SDS011;6040;49.358;11.140;2022-08-16T07:26:09;4.20;;;3.90;;
11960;SDS011;6040;49.358;11.140;2022-08-16T07:28:39;5.00;;;4.20;;
11960;SDS011;6040;49.358;11.140;2022-08-16T07:31:06;5.63;;;4.10;;
11960;SDS011;6040;49.358;11.140;2022-08-16T07:33:33;6.17;;;4.10;;
11960;SDS011;6040;49.358;11.140;2022-08-16T07:36:01;5.10;;;4.10;;
11960;SDS011;6040;49.358;11.140;2022-08-16T07:38:29;4.97;;;4.20;;
11960;SDS011;6040;49.358;11.140;2022-08-16T07:40:57;4.37;;;3.97;;
11960;SDS011;6040;49.358;11.140;2022-08-16T07:43:25;3.97;;;3.40;;
11960;SDS011;6040;49.358;11.140;2022-08-16T07:45:52;5.47;;;3.80;;
11960;SDS011;6040;49.358;11.140;2022-08-16T07:48:19;4.03;;;3.67;;
11960;SDS011;6040;49.358;11.140;2022-08-16T07:50:46;4.60;;;4.10;;
11960;SDS011;6040;49.358;11.140;2022-08-16T07:53:13;4.28;;;3.90;;
11960;SDS011;6040;49.358;11.140;2022-08-16T07:55:40;5.00;;;3.90;;
11960;SDS011;6040;49.358;11.140;2022-08-16T07:58:09;5.43;;;4.17;;
11960;SDS011;6040;49.358;11.140;2022-08-16T08:00:36;5.43;;;4.13;;
11960;SDS011;6040;49.358;11.140;2022-08-16T08:03:03;7.93;;;4.25;;
11960;SDS011;6040;49.358;11.140;2022-08-16T08:05:31;3.90;;;3.60;;
11960;SDS011;6040;49.358;11.140;2022-08-16T08:07:58;4.53;;;3.80;;
11960;SDS011;6040;49.358;11.140;2022-08-16T08:10:25;4.27;;;3.83;;
11960;SDS011;6040;49.358;11.140;2022-08-16T08:12:52;3.87;;;3.57;;
11960;SDS011;6040;49.358;11.140;2022-08-16T08:15:23;4.78;;;3.75;;
11960;SDS011;6040;49.358;11.140;2022-08-16T08:17:50;3.80;;;3.40;;
11960;SDS011;6040;49.358;11.140;2022-08-16T08:20:18;4.38;;;3.80;;
11960;SDS011;6040;49.358;11.140;2022-08-16T08:22:47;4.00;;;3.40;;
11960;SDS011;6040;49.358;11.140;2022-08-16T08:25:16;3.73;;;3.33;;
11960;SDS011;6040;49.358;11.140;2022-08-16T08:27:44;4.63;;;3.22;;
11960;SDS011;6040;49.358;11.140;2022-08-16T08:30:11;5.05;;;3.42;;
11960;SDS011;6040;49.358;11.140;2022-08-16T08:32:40;5.03;;;3.20;;
11960;SDS011;6040;49.358;11.140;2022-08-16T08:35:07;3.33;;;3.00;;
11960;SDS011;6040;49.358;11.140;2022-08-16T08:37:36;5.25;;;3.22;;
11960;SDS011;6040;49.358;11.140;2022-08-16T08:40:03;4.10;;;3.20;;
11960;SDS011;6040;49.358;11.140;2022-08-16T08:42:31;3.38;;;3.17;;
11960;SDS011;6040;49.358;11.140;2022-08-16T08:44:58;4.35;;;3.53;;
11960;SDS011;6040;49.358;11.140;2022-08-16T08:47:28;4.30;;;3.45;;
11960;SDS011;6040;49.358;11.140;2022-08-16T08:49:56;8.65;;;3.33;;
11960;SDS011;6040;49.358;11.140;2022-08-16T08:52:23;3.60;;;3.03;;
11960;SDS011;6040;49.358;11.140;2022-08-16T08:54:51;4.50;;;3.13;;
11960;SDS011;6040;49.358;11.140;2022-08-16T08:57:18;4.53;;;3.13;;
11960;SDS011;6040;49.358;11.140;2022-08-16T08:59:45;4.50;;;3.45;;
11960;SDS011;6040;49.358;11.140;2022-08-16T09:02:12;4.30;;;3.10;;
11960;SDS011;6040;49.358;11.140;2022-08-16T09:04:40;4.03;;;3.28;;
11960;SDS011;6040;49.358;11.140;2022-08-16T09:07:09;3.75;;;3.20;;
11960;SDS011;6040;49.358;11.140;2022-08-16T09:09:36;4.40;;;3.30;;
11960;SDS011;6040;49.358;11.140;2022-08-16T09:12:04;4.00;;;3.30;;
11960;SDS011;6040;49.358;11.140;2022-08-16T09:14:32;4.07;;;3.03;;
11960;SDS011;6040;49.358;11.140;2022-08-16T09:17:02;4.22;;;3.03;;
11960;SDS011;6040;49.358;11.140;2022-08-16T09:19:29;5.32;;;3.50;;
11960;SDS011;6040;49.358;11.140;2022-08-16T09:21:56;3.35;;;3.05;;
11960;SDS011;6040;49.358;11.140;2022-08-16T09:24:25;3.35;;;2.92;;
11960;SDS011;6040;49.358;11.140;2022-08-16T09:26:51;4.03;;;3.13;;
11960;SDS011;6040;49.358;11.140;2022-08-16T09:29:18;4.50;;;3.13;;
11960;SDS011;6040;49.358;11.140;2022-08-16T09:31:45;3.95;;;3.10;;
11960;SDS011;6040;49.358;11.140;2022-08-16T09:34:13;5.07;;;3.10;;
11960;SDS011;6040;49.358;11.140;2022-08-16T09:36:40;3.45;;;2.90;;
11960;SDS011;6040;49.358;11.140;2022-08-16T09:39:07;4.70;;;3.60;;
11960;SDS011;6040;49.358;11.140;2022-08-16T09:41:35;4.68;;;3.00;;
11960;SDS011;6040;49.358;11.140;2022-08-16T09:44:02;3.42;;;3.00;;
11960;SDS011;6040;49.358;11.140;2022-08-16T09:46:30;4.70;;;3.08;;
11960;SDS011;6040;49.358;11.140;2022-08-16T09:48:57;4.57;;;3.35;;
11960;SDS011;6040;49.358;11.140;2022-08-16T09:51:24;3.92;;;3.20;;
11960;SDS011;6040;49.358;11.140;2022-08-16T09:53:51;4.03;;;2.83;;
11960;SDS011;6040;49.358;11.140;2022-08-16T09:56:22;3.78;;;2.90;;
11960;SDS011;6040;49.358;11.140;2022-08-16T09:58:52;5.80;;;3.00;;
11960;SDS011;6040;49.358;11.140;2022-08-16T10:01:20;3.75;;;3.05;;
11960;SDS011;6040;49.358;11.140;2022-08-16T10:03:48;3.80;;;3.05;;
11960;SDS011;6040;49.358;11.140;2022-08-16T10:06:16;7.10;;;3.08;;
11960;SDS011;6040;49.358;11.140;2022-08-16T10:08:42;3.25;;;2.70;;
11960;SDS011;6040;49.358;11.140;2022-08-16T10:11:10;3.10;;;2.80;;
11960;SDS011;6040;49.358;11.140;2022-08-16T10:13:56;3.55;;;3.25;;
11960;SDS011;6040;49.358;11.140;2022-08-16T10:16:23;2.88;;;2.67;;
11960;SDS011;6040;49.358;11.140;2022-08-16T10:18:50;3.03;;;2.70;;
11960;SDS011;6040;49.358;11.140;2022-08-16T10:21:17;3.47;;;2.70;;
11960;SDS011;6040;49.358;11.140;2022-08-16T10:23:44;6.05;;;3.00;;
11960;SDS011;6040;49.358;11.140;2022-08-16T10:26:12;3.47;;;2.70;;
11960;SDS011;6040;49.358;11.140;2022-08-16T10:28:40;4.53;;;3.03;;
11960;SDS011;6040;49.358;11.140;2022-08-16T10:31:09;3.08;;;2.67;;
11960;SDS011;6040;49.358;11.140;2022-08-16T10:33:37;5.03;;;2.97;;
11960;SDS011;6040;49.358;11.140;2022-08-16T10:36:05;4.10;;;2.92;;
11960;SDS011;6040;49.358;11.140;2022-08-16T10:38:34;4.80;;;2.75;;
11960;SDS011;6040;49.358;11.140;2022-08-16T10:41:02;5.35;;;3.20;;
11960;SDS011;6040;49.358;11.140;2022-08-16T10:43:29;4.63;;;2.85;;
11960;SDS011;6040;49.358;11.140;2022-08-16T10:45:56;4.10;;;3.00;;
11960;SDS011;6040;49.358;11.140;2022-08-16T10:48:24;3.97;;;2.65;;
11960;SDS011;6040;49.358;11.140;2022-08-16T10:50:52;2.67;;;2.50;;
11960;SDS011;6040;49.358;11.140;2022-08-16T10:53:21;4.90;;;2.95;;
11960;SDS011;6040;49.358;11.140;2022-08-16T10:55:48;3.15;;;2.60;;
11960;SDS011;6040;49.358;11.140;2022-08-16T10:58:15;3.15;;;2.60;;
11960;SDS011;6040;49.358;11.140;2022-08-16T11:00:42;3.13;;;2.80;;
11960;SDS011;6040;49.358;11.140;2022-08-16T11:03:10;5.43;;;2.95;;
11960;SDS011;6040;49.358;11.140;2022-08-16T11:05:38;4.22;;;2.90;;
11960;SDS011;6040;49.358;11.140;2022-08-16T11:08:07;4.65;;;2.97;;
11960;SDS011;6040;49.358;11.140;2022-08-16T11:10:36;3.33;;;2.75;;
11960;SDS011;6040;49.358;11.140;2022-08-16T11:13:05;2.85;;;2.55;;
11960;SDS011;6040;49.358;11.140;2022-08-16T11:15:35;2.70;;;2.50;;
11960;SDS011;6040;49.358;11.140;2022-08-16T11:18:03;4.70;;;2.92;;
11960;SDS011;6040;49.358;11.140;2022-08-16T11:20:31;3.70;;;3.03;;
11960;SDS011;6040;49.358;11.140;2022-08-16T11:22:59;3.20;;;2.90;;
11960;SDS011;6040;49.358;11.140;2022-08-16T11:25:27;3.95;;;2.65;;
11960;SDS011;6040;49.358;11.140;2022-08-16T11:27:56;4.00;;;2.85;;
11960;SDS011;6040;49.358;11.140;2022-08-16T11:30:24;4.13;;;2.92;;
11960;SDS011;6040;49.358;11.140;2022-08-16T11:32:52;3.42;;;2.70;;
11960;SDS011;6040;49.358;11.140;2022-08-16T11:35:19;3.25;;;2.55;;
11960;SDS011;6040;49.358;11.140;2022-08-16T11:37:48;4.10;;;2.80;;
11960;SDS011;6040;49.358;11.140;2022-08-16T11:40:20;4.22;;;2.80;;
11960;SDS011;6040;49.358;11.140;2022-08-16T11:42:47;2.65;;;2.45;;
11960;SDS011;6040;49.358;11.140;2022-08-16T11:45:14;4.25;;;2.85;;
11960;SDS011;6040;49.358;11.140;2022-08-16T11:47:41;4.10;;;2.55;;
11960;SDS011;6040;49.358;11.140;2022-08-16T11:50:08;5.22;;;2.88;;
11960;SDS011;6040;49.358;11.140;2022-08-16T11:52:36;3.97;;;2.50;;
11960;SDS011;6040;49.358;11.140;2022-08-16T11:55:04;3.03;;;2.65;;
11960;SDS011;6040;49.358;11.140;2022-08-16T11:57:35;2.55;;;2.35;;
11960;SDS011;6040;49.358;11.140;2022-08-16T12:00:04;4.57;;;2.40;;
11960;SDS011;6040;49.358;11.140;2022-08-16T12:02:36;2.78;;;2.47;;
11960;SDS011;6040;49.358;11.140;2022-08-16T12:05:03;5.30;;;2.78;;
11960;SDS011;6040;49.358;11.140;2022-08-16T12:07:32;2.92;;;2.67;;
11960;SDS011;6040;49.358;11.140;2022-08-16T12:09:59;2.88;;;2.55;;
11960;SDS011;6040;49.358;11.140;2022-08-16T12:12:26;2.97;;;2.60;;
11960;SDS011;6040;49.358;11.140;2022-08-16T12:14:54;3.58;;;2.70;;
11960;SDS011;6040;49.358;11.140;2022-08-16T12:17:21;2.50;;;2.35;;
11960;SDS011;6040;49.358;11.140;2022-08-16T12:19:48;5.13;;;2.30;;
11960;SDS011;6040;49.358;11.140;2022-08-16T12:22:14;2.35;;;2.13;;
11960;SDS011;6040;49.358;11.140;2022-08-16T12:24:41;2.83;;;2.33;;
11960;SDS011;6040;49.358;11.140;2022-08-16T12:27:08;3.15;;;2.30;;
11960;SDS011;6040;49.358;11.140;2022-08-16T12:29:35;5.13;;;2.70;;
11960;SDS011;6040;49.358;11.140;2022-08-16T12:32:04;4.22;;;2.65;;
11960;SDS011;6040;49.358;11.140;2022-08-16T12:34:31;3.05;;;2.20;;
11960;SDS011;6040;49.358;11.140;2022-08-16T12:36:58;2.40;;;2.05;;
11960;SDS011;6040;49.358;11.140;2022-08-16T12:39:27;2.92;;;2.40;;
11960;SDS011;6040;49.358;11.140;2022-08-16T12:41:54;2.67;;;2.47;;
11960;SDS011;6040;49.358;11.140;2022-08-16T12:44:21;2.65;;;2.45;;
11960;SDS011;6040;49.358;11.140;2022-08-16T12:46:49;6.07;;;2.53;;
11960;SDS011;6040;49.358;11.140;2022-08-16T12:49:31;2.70;;;2.47;;
11960;SDS011;6040;49.358;11.140;2022-08-16T12:51:58;3.85;;;2.35;;
11960;SDS011;6040;49.358;11.140;2022-08-16T12:54:24;2.97;;;2.30;;
11960;SDS011;6040;49.358;11.140;2022-08-16T12:56:51;2.47;;;2.13;;
11960;SDS011;6040;49.358;11.140;2022-08-16T12:59:19;2.80;;;2.35;;
11960;SDS011;6040;49.358;11.140;2022-08-16T13:01:46;2.95;;;2.30;;
11960;SDS011;6040;49.358;11.140;2022-08-16T13:04:14;2.30;;;2.10;;
11960;SDS011;6040;49.358;11.140;2022-08-16T13:06:42;3.15;;;2.40;;
11960;SDS011;6040;49.358;11.140;2022-08-16T13:09:09;3.03;;;2.50;;
11960;SDS011;6040;49.358;11.140;2022-08-16T13:11:50;2.80;;;2.60;;
11960;SDS011;6040;49.358;11.140;2022-08-16T13:14:25;2.58;;;2.38;;
11960;SDS011;6040;49.358;11.140;2022-08-16T13:16:54;2.65;;;2.42;;
11960;SDS011;6040;49.358;11.140;2022-08-16T13:19:21;2.28;;;2.08;;
11960;SDS011;6040;49.358;11.140;2022-08-16T13:21:49;3.75;;;2.38;;
11960;SDS011;6040;49.358;11.140;2022-08-16T13:24:16;2.90;;;2.50;;
11960;SDS011;6040;49.358;11.140;2022-08-16T13:26:43;3.10;;;2.20;;
11960;SDS011;6040;49.358;11.140;2022-08-16T13:29:09;4.60;;;2.50;;
11960;SDS011;6040;49.358;11.140;2022-08-16T13:31:36;2.40;;;2.20;;
11960;SDS011;6040;49.358;11.140;2022-08-16T13:34:03;2.75;;;2.30;;
11960;SDS011;6040;49.358;11.140;2022-08-16T13:36:30;2.58;;;2.17;;
11960;SDS011;6040;49.358;11.140;2022-08-16T13:38:59;3.38;;;2.20;;
11960;SDS011;6040;49.358;11.140;2022-08-16T13:41:27;4.43;;;2.30;;
11960;SDS011;6040;49.358;11.140;2022-08-16T13:43:53;2.83;;;2.50;;
11960;SDS011;6040;49.358;11.140;2022-08-16T13:46:20;4.57;;;2.38;;
11960;SDS011;6040;49.358;11.140;2022-08-16T13:48:47;2.40;;;2.20;;
11960;SDS011;6040;49.358;11.140;2022-08-16T13:51:15;2.22;;;2.05;;
11960;SDS011;6040;49.358;11.140;2022-08-16T13:53:48;2.42;;;2.20;;
11960;SDS011;6040;49.358;11.140;2022-08-16T13:56:18;2.55;;;2.33;;
11960;SDS011;6040;49.358;11.140;2022-08-16T13:58:45;2.55;;;2.33;;
11960;SDS011;6040;49.358;11.140;2022-08-16T14:01:13;3.40;;;2.28;;
11960;SDS011;6040;49.358;11.140;2022-08-16T14:03:40;2.47;;;2.20;;
11960;SDS011;6040;49.358;11.140;2022-08-16T14:06:08;2.83;;;2.40;;
11960;SDS011;6040;49.358;11.140;2022-08-16T14:08:35;4.78;;;2.75;;
11960;SDS011;6040;49.358;11.140;2022-08-16T14:11:03;2.55;;;2.35;;
11960;SDS011;6040;49.358;11.140;2022-08-16T14:13:31;3.10;;;2.40;;
11960;SDS011;6040;49.358;11.140;2022-08-16T14:15:59;3.17;;;2.55;;
11960;SDS011;6040;49.358;11.140;2022-08-16T14:18:26;2.33;;;2.13;;
11960;SDS011;6040;49.358;11.140;2022-08-16T14:20:53;3.08;;;2.50;;
11960;SDS011;6040;49.358;11.140;2022-08-16T14:23:20;3.40;;;2.47;;
11960;SDS011;6040;49.358;11.140;2022-08-16T14:25:47;3.50;;;2.25;;
11960;SDS011;6040;49.358;11.140;2022-08-16T14:28:14;2.40;;;2.20;;
11960;SDS011;6040;49.358;11.140;2022-08-16T14:30:42;2.58;;;2.35;;
11960;SDS011;6040;49.358;11.140;2022-08-16T14:33:09;2.85;;;2.35;;
11960;SDS011;6040;49.358;11.140;2022-08-16T14:35:36;2.75;;;2.47;;
11960;SDS011;6040;49.358;11.140;2022-08-16T14:38:03;2.70;;;2.42;;
11960;SDS011;6040;49.358;11.140;2022-08-16T14:40:31;3.05;;;2.20;;
11960;SDS011;6040;49.358;11.140;2022-08-16T14:42:58;2.60;;;2.40;;
11960;SDS011;6040;49.358;11.140;2022-08-16T14:46:01;3.63;;;2.55;;
11960;SDS011;6040;49.358;11.140;2022-08-16T14:48:28;2.80;;;2.40;;
11960;SDS011;6040;49.358;11.140;2022-08-16T14:50:55;2.50;;;2.30;;
11960;SDS011;6040;49.358;11.140;2022-08-16T14:53:22;4.82;;;2.30;;